Date,TemperatureHighF,TemperatureAvgF,TemperatureLowF,DewpointHighF,DewpointAvgF,DewpointLowF,HumidityHigh,HumidityAvg,HumidityLow,PressureMaxIn,PressureMinIn,WindSpeedMaxMPH,WindSpeedAvgMPH,GustSpeedMaxMPH,PrecipitationSumIn
2013-10-1,63.7,52.1,43.2,49.9,42.0,36.6,91,70,44,30.18,30.06,31,2,31,0.00
2013-10-2,63.3,47.8,35.2,45.8,37.7,32.3,95,71,34,30.18,30.09,22,2,23,0.00
2013-10-3,63.0,50.3,40.5,49.0,38.8,35.1,94,68,37,30.32,30.18,11,1,12,0.00
2013-10-4,70.9,49.8,34.0,47.3,37.2,31.4,94,67,29,30.41,30.24,11,1,15,0.00
2013-10-5,77.7,53.8,35.2,45.6,37.6,32.0,92,60,22,30.30,30.12,10,1,11,0.00
2013-10-6,77.2,54.0,36.9,48.9,37.9,30.0,92,60,23,30.15,30.00,14,1,15,0.00
2013-10-7,65.8,48.2,43.0,45.9,39.3,35.1,84,72,41,30.15,30.03,19,0,19,0.00
2013-10-8,61.9,48.7,36.3,50.0,38.8,33.1,95,72,41,30.15,29.94,14,2,14,0.00
2013-10-9,63.1,49.2,36.1,48.1,37.2,32.9,93,67,36,29.97,29.88,17,2,17,0.00
2013-10-10,66.2,50.0,36.9,48.6,38.5,33.5,93,68,36,30.06,29.94,16,2,16,0.00
2013-10-11,64.8,47.7,33.3,47.0,38.0,30.4,94,72,41,30.12,30.00,15,1,15,0.00
2013-10-12,56.1,46.7,38.1,50.5,43.2,34.9,94,88,65,30.09,30.03,15,1,15,0.12
2013-10-13,63.1,48.5,39.0,50.2,41.0,35.6,98,78,40,30.21,30.09,10,1,13,0.00
2013-10-14,68.7,47.8,32.7,48.7,37.2,30.7,95,71,34,30.29,30.15,11,1,11,0.00
2013-10-15,73.4,49.1,32.0,47.9,34.7,29.3,94,64,24,30.24,30.06,14,1,14,0.00
2013-10-16,71.1,48.4,32.5,43.9,34.8,28.7,90,64,31,30.15,30.06,10,0,10,0.00
2013-10-17,71.8,50.0,34.0,47.2,37.4,30.8,93,66,33,30.18,30.06,10,1,10,0.00
2013-10-18,74.1,51.1,34.5,50.8,38.9,31.6,94,68,32,30.15,30.00,11,0,11,0.00
2013-10-19,74.1,50.9,34.3,50.7,38.6,31.4,93,67,32,30.15,30.06,10,0,10,0.00
2013-10-20,73.4,50.8,34.5,50.7,39.0,31.6,93,68,34,30.15,30.00,9,0,9,0.00
2013-10-21,76.8,51.9,34.9,51.9,39.6,32.0,94,67,32,30.09,29.94,9,0,9,0.00
2013-10-22,77.0,52.9,36.0,52.0,39.6,32.8,93,65,30,30.09,29.94,9,0,9,0.00
2013-10-23,74.1,51.8,36.1,50.6,38.9,32.8,93,66,32,30.03,29.91,10,0,10,0.00
2013-10-24,72.7,50.3,34.7,48.5,37.8,31.0,92,66,33,30.09,29.97,10,0,10,0.00
2013-10-25,72.1,49.9,34.2,48.7,37.4,31.0,93,66,33,30.21,30.09,9,0,9,0.00
2013-10-26,71.4,49.1,33.1,48.6,37.4,29.6,92,67,35,30.27,30.06,11,1,11,0.00
2013-10-27,59.9,47.0,34.9,51.6,38.2,31.7,94,73,41,30.06,29.76,24,4,24,0.00
2013-10-28,58.8,50.0,38.5,43.4,38.9,32.9,82,67,48,29.85,29.70,13,2,13,0.00
2013-10-29,60.1,43.5,30.0,43.5,34.1,27.7,94,73,41,30.03,29.85,11,1,11,0.00
2013-10-30,62.8,46.9,34.5,46.4,36.9,31.1,92,70,41,30.21,30.03,11,1,11,0.00
2013-10-31,66.7,49.2,38.1,46.9,38.7,33.1,91,70,38,30.27,30.15,11,1,11,0.00